Muses Mills, Kentucky
Current Conditions -  °F | °C
As of 9:10 AM on Thursday 29 Jan 2015 (Local Time) from KSYM Reporting Station
Light Rain Light Rain  
Wind Chill: 31°   Ceiling: 6000
Heat Index: 39°   Visibility: 10mi
Dew Point: 30°   Wind: 14mph
Humidity: 70%   Direction: 180°S
Pressure: 29.96"   Gusts: 20mph
Location:  38.35°N, 83.53°W
Report Text: KSYM 291410Z AUTO 18012G17KT 10SM -RA OVC060 04/M01 A2996 RMK AO2
Loading
Personal Weather Stations






























Interactive Weather Map New forecast layout! Learn more

10-Day Weather Forecast

Advertisements
Track Severe Weather on mobile